Andover, Kansas
Current Conditions -  °F | °C
As of 6:54 PM on Saturday 20 Dec 2014 (Local Time) from KAAO Reporting Station
Overcast Overcast  
Wind Chill: 36°   Ceiling: 1900
Heat Index: 43°   Visibility: 10mi
Dew Point: 35°   Wind: 13mph
Humidity: 74%   Direction: 210°SSW
Pressure: 30.11"   Gusts: NA
Location:  37.71°N, 97.14°W
Report Text: KAAO 210054Z AUTO 21011KT 10SM OVC019 06/02 A3011 RMK AO2 SLP206 T00610017
Loading
Personal Weather Stations






























Interactive Weather Map New forecast layout! Learn more

10-Day Weather Forecast

Advertisements
Track Severe Weather on mobile